createdAt,value
2022-08-26T00:02:22.616Z,8.27
2022-08-26T00:04:51.322Z,8.02
2022-08-26T00:07:20.345Z,8.43
2022-08-26T00:09:49.974Z,8.13
2022-08-26T00:12:18.780Z,8.48
2022-08-26T00:15:01.673Z,8.52
2022-08-26T00:17:30.316Z,8.63
2022-08-26T00:19:59.071Z,9.05
2022-08-26T00:22:28.458Z,8.60
2022-08-26T00:24:56.958Z,8.77
2022-08-26T00:27:25.568Z,8.27
2022-08-26T00:29:55.888Z,9.43
2022-08-26T00:32:30.228Z,10.00
2022-08-26T00:34:58.956Z,10.23
2022-08-26T00:37:27.645Z,9.60
2022-08-26T00:39:56.171Z,8.68
2022-08-26T00:42:32.543Z,9.07
2022-08-26T00:45:01.235Z,9.45
2022-08-26T00:47:34.221Z,8.55
2022-08-26T00:50:04.598Z,8.60
2022-08-26T00:52:33.586Z,8.98
2022-08-26T00:55:04.061Z,9.18
2022-08-26T00:57:33.477Z,8.80
2022-08-26T01:00:03.101Z,8.80
2022-08-26T01:02:33.275Z,8.52
2022-08-26T01:05:04.007Z,8.57
2022-08-26T01:07:32.799Z,8.82
2022-08-26T01:10:05.028Z,9.05
2022-08-26T01:12:35.645Z,8.20
2022-08-26T01:15:08.869Z,9.25
2022-08-26T01:17:41.241Z,8.60
2022-08-26T01:20:15.266Z,8.07
2022-08-26T01:22:48.242Z,8.32
2022-08-26T01:25:21.696Z,8.45
2022-08-26T01:27:54.172Z,8.30
2022-08-26T01:30:26.852Z,8.40
2022-08-26T01:32:56.865Z,8.65
2022-08-26T01:35:27.629Z,8.00
2022-08-26T01:37:58.186Z,8.25
2022-08-26T01:40:28.967Z,8.45
2022-08-26T01:42:57.743Z,8.45
2022-08-26T01:45:27.570Z,9.55
2022-08-26T01:47:57.442Z,9.00
2022-08-26T01:50:30.401Z,9.05
2022-08-26T01:53:14.074Z,9.23
2022-08-26T01:55:44.109Z,8.13
2022-08-26T01:58:21.750Z,9.13
2022-08-26T02:00:50.508Z,8.95
2022-08-26T02:03:22.773Z,8.65
2022-08-26T02:05:54.451Z,8.77
2022-08-26T02:08:29.686Z,9.55
2022-08-26T02:11:05.156Z,9.50
2022-08-26T02:13:35.726Z,9.13
2022-08-26T02:16:08.435Z,8.93
2022-08-26T02:18:39.051Z,9.52
2022-08-26T02:21:11.475Z,8.68
2022-08-26T02:23:42.812Z,8.98
2022-08-26T02:26:14.350Z,9.50
2022-08-26T02:28:51.606Z,9.27
2022-08-26T02:33:48.890Z,9.35
2022-08-26T02:36:20.942Z,8.52
2022-08-26T02:38:52.779Z,9.48
2022-08-26T02:41:21.559Z,9.60
2022-08-26T02:43:51.923Z,8.73
2022-08-26T02:46:27.840Z,9.73
2022-08-26T02:48:58.765Z,9.63
2022-08-26T02:51:27.530Z,9.13
2022-08-26T02:53:58.144Z,9.43
2022-08-26T02:56:36.935Z,10.48
2022-08-26T02:59:05.995Z,9.25
2022-08-26T03:01:42.775Z,9.88
2022-08-26T03:04:16.790Z,9.55
2022-08-26T03:06:53.053Z,8.95
2022-08-26T03:09:34.786Z,9.82
2022-08-26T03:12:10.768Z,11.07
2022-08-26T03:14:51.169Z,13.13
2022-08-26T03:17:41.324Z,9.98
2022-08-26T03:20:13.756Z,9.88
2022-08-26T03:22:56.694Z,10.25
2022-08-26T03:26:01.129Z,10.05
2022-08-26T03:28:37.286Z,9.93
2022-08-26T03:31:10.521Z,10.30
2022-08-26T03:33:42.959Z,10.27
2022-08-26T03:36:32.030Z,9.65
2022-08-26T03:39:06.148Z,9.80
2022-08-26T03:42:07.882Z,10.50
2022-08-26T03:44:57.354Z,9.43
2022-08-26T03:50:37.299Z,10.52
2022-08-26T03:53:13.901Z,9.85
2022-08-26T03:56:00.928Z,10.30
2022-08-26T03:58:38.931Z,9.15
2022-08-26T04:01:16.457Z,8.93
2022-08-26T04:06:47.015Z,8.43
2022-08-26T04:09:47.511Z,9.20
2022-08-26T04:12:26.339Z,10.52
2022-08-26T04:15:03.102Z,9.45
2022-08-26T04:17:36.589Z,10.52
2022-08-26T04:20:25.449Z,9.65
2022-08-26T04:23:16.218Z,10.00
2022-08-26T04:26:04.769Z,9.98
2022-08-26T04:28:41.775Z,9.65
2022-08-26T04:31:18.923Z,9.75
2022-08-26T04:34:01.953Z,10.50
2022-08-26T04:36:34.339Z,9.68
2022-08-26T04:42:03.267Z,10.25
2022-08-26T04:44:46.490Z,10.02
2022-08-26T04:47:32.474Z,10.30
2022-08-26T04:52:56.237Z,10.30
2022-08-26T04:56:43.903Z,10.70
2022-08-26T04:59:00.199Z,10.80
2022-08-26T05:01:49.453Z,11.07
2022-08-26T05:04:47.484Z,11.38
2022-08-26T05:07:29.740Z,10.60
2022-08-26T05:10:13.790Z,11.48
2022-08-26T05:12:58.023Z,10.98
2022-08-26T05:15:43.896Z,11.13
2022-08-26T05:18:36.261Z,10.68
2022-08-26T05:21:21.214Z,11.98
2022-08-26T05:24:03.383Z,10.88
2022-08-26T05:26:44.636Z,10.77
2022-08-26T05:29:30.097Z,11.60
2022-08-26T05:32:15.655Z,10.88
2022-08-26T05:34:48.159Z,11.05
2022-08-26T05:37:36.762Z,10.80
2022-08-26T05:40:08.638Z,10.55
2022-08-26T05:45:07.626Z,11.23
2022-08-26T05:47:36.165Z,11.13
2022-08-26T05:50:05.891Z,11.68
2022-08-26T05:52:36.143Z,11.48
2022-08-26T05:55:04.580Z,11.75
2022-08-26T05:57:35.405Z,11.07
2022-08-26T06:00:15.309Z,11.23
2022-08-26T06:02:48.402Z,12.57
2022-08-26T06:05:17.196Z,12.05
2022-08-26T06:08:05.024Z,12.05
2022-08-26T06:10:45.360Z,11.40
2022-08-26T06:13:14.408Z,12.10
2022-08-26T06:15:44.351Z,12.55
2022-08-26T06:18:14.621Z,12.18
2022-08-26T06:20:53.721Z,12.50
2022-08-26T06:23:45.570Z,11.63
2022-08-26T06:26:14.364Z,11.52
2022-08-26T06:28:45.368Z,12.73
2022-08-26T06:31:15.496Z,12.32
2022-08-26T06:33:44.797Z,12.02
2022-08-26T06:36:18.708Z,11.85
2022-08-26T06:38:49.231Z,12.07
2022-08-26T06:41:18.611Z,12.18
2022-08-26T06:43:49.055Z,11.65
2022-08-26T06:46:19.090Z,12.55
2022-08-26T06:48:50.988Z,12.25
2022-08-26T06:51:20.416Z,11.52
2022-08-26T06:53:56.529Z,12.63
2022-08-26T06:56:27.463Z,11.75
2022-08-26T06:58:56.136Z,12.07
2022-08-26T07:01:26.026Z,11.80
2022-08-26T07:03:57.071Z,12.65
2022-08-26T07:06:27.616Z,12.68
2022-08-26T07:09:06.355Z,12.90
2022-08-26T07:11:39.202Z,12.18
2022-08-26T07:14:09.178Z,12.70
2022-08-26T07:16:37.619Z,13.02
2022-08-26T07:19:10.903Z,14.02
2022-08-26T07:21:40.524Z,12.80
2022-08-26T07:24:11.045Z,12.75
2022-08-26T07:26:42.990Z,12.40
2022-08-26T07:29:12.534Z,12.35
2022-08-26T07:31:42.731Z,11.57
2022-08-26T07:34:11.830Z,12.40
2022-08-26T07:36:40.275Z,10.95
2022-08-26T07:39:11.065Z,12.68
2022-08-26T07:41:39.740Z,12.60
2022-08-26T07:44:08.952Z,12.07
2022-08-26T07:46:38.991Z,11.10
2022-08-26T07:49:07.784Z,10.52
2022-08-26T07:51:37.245Z,11.25
2022-08-26T07:54:06.327Z,10.65
2022-08-26T07:56:36.295Z,10.07
2022-08-26T07:59:13.675Z,10.50
2022-08-26T08:01:45.081Z,10.20
2022-08-26T08:04:14.386Z,11.20
2022-08-26T08:06:43.938Z,11.05
2022-08-26T08:09:13.431Z,11.25
2022-08-26T08:11:43.267Z,9.98
2022-08-26T08:14:13.315Z,10.27
2022-08-26T08:16:46.089Z,10.00
2022-08-26T08:19:16.033Z,9.02
2022-08-26T08:21:47.192Z,10.20
2022-08-26T08:24:15.925Z,9.73
2022-08-26T08:26:47.213Z,10.10
2022-08-26T08:29:15.834Z,9.43
2022-08-26T08:31:59.860Z,8.82
2022-08-26T08:34:31.334Z,8.13
2022-08-26T08:37:00.100Z,8.70
2022-08-26T08:39:28.676Z,9.10
2022-08-26T08:42:11.817Z,9.25
2022-08-26T08:44:43.940Z,8.75
2022-08-26T08:47:17.193Z,9.05
2022-08-26T08:52:15.615Z,9.30
2022-08-26T08:54:45.091Z,7.95
2022-08-26T08:57:16.860Z,8.35
2022-08-26T08:59:52.076Z,8.45
2022-08-26T09:02:23.284Z,7.65
2022-08-26T09:04:59.858Z,8.20
2022-08-26T09:07:31.267Z,8.30
2022-08-26T09:10:01.946Z,8.00
2022-08-26T09:12:33.513Z,8.05
2022-08-26T09:15:03.568Z,8.63
2022-08-26T09:17:42.188Z,8.75
2022-08-26T09:20:17.368Z,6.95
2022-08-26T09:25:15.186Z,7.97
2022-08-26T09:27:50.559Z,7.68
2022-08-26T09:30:24.093Z,7.78
2022-08-26T09:32:59.591Z,7.68
2022-08-26T09:35:30.998Z,7.50
2022-08-26T09:37:59.915Z,7.35
2022-08-26T09:40:30.710Z,7.07
2022-08-26T09:43:10.696Z,7.10
2022-08-26T09:45:40.231Z,7.55
2022-08-26T09:48:09.698Z,6.85
2022-08-26T09:50:41.023Z,6.50
2022-08-26T09:53:17.034Z,6.97
2022-08-26T09:55:50.000Z,6.80
2022-08-26T09:58:34.831Z,6.80
2022-08-26T10:01:08.446Z,6.93
2022-08-26T10:03:38.720Z,6.63
2022-08-26T10:06:09.065Z,6.63
2022-08-26T10:08:39.161Z,6.80
2022-08-26T10:11:09.835Z,6.90
2022-08-26T10:13:42.326Z,7.03
2022-08-26T10:16:15.930Z,6.35
2022-08-26T10:18:47.823Z,7.10
2022-08-26T10:21:25.728Z,7.20
2022-08-26T10:23:56.026Z,6.65
2022-08-26T10:26:27.388Z,6.32
2022-08-26T10:29:01.518Z,7.45
2022-08-26T10:31:40.130Z,6.43
2022-08-26T10:34:10.417Z,7.25
2022-08-26T10:39:44.274Z,6.72
2022-08-26T10:42:18.023Z,6.07
2022-08-26T10:44:53.983Z,6.60
2022-08-26T10:47:32.596Z,6.07
2022-08-26T10:50:03.390Z,6.90
2022-08-26T10:52:37.114Z,6.57
2022-08-26T10:55:14.113Z,6.68
2022-08-26T10:57:45.822Z,6.70
2022-08-26T11:00:44.220Z,6.75
2022-08-26T11:03:22.767Z,7.25
2022-08-26T11:06:16.890Z,7.13
2022-08-26T11:08:47.804Z,6.32
2022-08-26T11:11:45.417Z,6.07
2022-08-26T11:14:33.035Z,6.65
2022-08-26T11:17:12.930Z,6.28
2022-08-26T11:20:09.209Z,6.05
2022-08-26T11:22:47.898Z,6.75
2022-08-26T11:25:18.175Z,6.22
2022-08-26T11:27:54.379Z,6.53
2022-08-26T11:30:41.249Z,6.30
2022-08-26T11:33:11.727Z,6.13
2022-08-26T11:35:53.130Z,6.22
2022-08-26T11:38:27.227Z,6.00
2022-08-26T11:41:02.112Z,6.32
2022-08-26T11:43:35.087Z,6.10
2022-08-26T11:46:05.387Z,6.30
2022-08-26T11:48:36.769Z,6.82
2022-08-26T11:51:06.219Z,5.47
2022-08-26T11:53:38.161Z,5.38
2022-08-26T11:56:08.017Z,5.10
2022-08-26T11:58:36.997Z,5.57
2022-08-26T12:01:09.788Z,5.05
2022-08-26T12:03:47.377Z,4.60
2022-08-26T12:06:17.693Z,5.10
2022-08-26T12:08:46.711Z,5.22
2022-08-26T12:11:23.101Z,4.60
2022-08-26T12:13:58.805Z,5.18
2022-08-26T12:19:32.668Z,5.15
2022-08-26T12:22:03.675Z,5.43
2022-08-26T12:24:32.127Z,5.30
2022-08-26T12:27:08.697Z,4.85
2022-08-26T12:29:39.901Z,5.03
2022-08-26T12:32:11.744Z,5.15
2022-08-26T12:34:41.748Z,4.43
2022-08-26T12:37:13.060Z,4.90
2022-08-26T12:39:43.849Z,5.22
2022-08-26T12:42:26.465Z,4.75
2022-08-26T12:45:00.781Z,4.65
2022-08-26T12:47:42.956Z,4.18
2022-08-26T12:50:18.802Z,4.43
2022-08-26T12:52:54.667Z,4.97
2022-08-26T12:55:24.707Z,4.32
2022-08-26T12:58:12.691Z,4.82
2022-08-26T13:00:42.278Z,4.65
2022-08-26T13:03:33.845Z,5.00
2022-08-26T13:06:16.661Z,4.90
2022-08-26T13:11:20.741Z,4.97
2022-08-26T13:13:53.410Z,4.95
2022-08-26T13:16:23.272Z,4.95
2022-08-26T13:18:57.042Z,4.47
2022-08-26T13:21:31.949Z,4.95
2022-08-26T13:24:07.769Z,5.25
2022-08-26T13:26:36.913Z,5.18
2022-08-26T13:29:10.620Z,4.82
2022-08-26T13:31:43.886Z,5.07
2022-08-26T13:34:18.129Z,4.10
2022-08-26T13:36:49.729Z,3.83
2022-08-26T13:39:20.162Z,3.80
2022-08-26T13:41:50.926Z,2.45
2022-08-26T13:44:19.456Z,3.40
2022-08-26T13:46:48.160Z,3.97
2022-08-26T13:49:16.614Z,3.63
2022-08-26T13:51:45.096Z,4.38
2022-08-26T13:54:15.006Z,4.90
2022-08-26T13:56:43.441Z,4.70
2022-08-26T13:59:12.995Z,6.13
2022-08-26T14:01:44.002Z,5.22
2022-08-26T14:04:12.761Z,5.00
2022-08-26T14:06:41.578Z,5.07
2022-08-26T14:09:11.439Z,5.45
2022-08-26T14:11:54.230Z,5.47
2022-08-26T14:14:23.389Z,6.38
2022-08-26T14:16:59.508Z,5.38
2022-08-26T14:19:29.615Z,4.63
2022-08-26T14:21:58.918Z,5.65
2022-08-26T14:24:27.665Z,5.15
2022-08-26T14:26:59.643Z,5.55
2022-08-26T14:29:32.985Z,5.72
2022-08-26T14:34:30.605Z,5.75
2022-08-26T14:37:07.357Z,5.43
2022-08-26T14:39:38.220Z,5.47
2022-08-26T14:42:10.322Z,4.55
2022-08-26T14:44:43.792Z,5.40
2022-08-26T14:49:50.808Z,4.95
2022-08-26T14:52:21.989Z,5.43
2022-08-26T14:54:55.308Z,5.78
2022-08-26T14:57:31.573Z,5.38
2022-08-26T15:00:03.437Z,5.90
2022-08-26T15:02:43.330Z,5.75
2022-08-26T15:08:44.312Z,4.68
2022-08-26T15:11:27.169Z,5.05
2022-08-26T15:14:06.560Z,5.22
2022-08-26T15:16:39.068Z,5.38
2022-08-26T15:19:11.945Z,5.30
2022-08-26T15:21:40.808Z,5.75
2022-08-26T15:24:09.748Z,5.60
2022-08-26T15:26:42.887Z,5.63
2022-08-26T15:29:15.393Z,5.35
2022-08-26T15:31:46.940Z,5.73
2022-08-26T15:34:16.996Z,5.90
2022-08-26T15:36:50.211Z,4.93
2022-08-26T15:39:22.050Z,5.82
2022-08-26T15:41:50.766Z,5.50
2022-08-26T15:44:22.016Z,5.97
2022-08-26T15:46:58.610Z,5.82
2022-08-26T15:49:27.539Z,6.28
2022-08-26T15:52:04.246Z,5.93
2022-08-26T15:54:38.529Z,6.30
2022-08-26T15:57:12.411Z,5.88
2022-08-26T15:59:50.753Z,5.82
2022-08-26T16:02:29.170Z,5.72
2022-08-26T16:05:01.020Z,6.15
2022-08-26T16:07:29.707Z,5.88
2022-08-26T16:10:07.925Z,5.50
2022-08-26T16:12:37.163Z,5.30
2022-08-26T16:15:14.365Z,5.35
2022-08-26T16:17:43.105Z,5.78
2022-08-26T16:20:12.189Z,5.85
2022-08-26T16:22:47.719Z,5.82
2022-08-26T16:25:18.765Z,5.65
2022-08-26T16:27:49.558Z,5.32
2022-08-26T16:30:20.903Z,6.63
2022-08-26T16:32:50.203Z,6.18
2022-08-26T16:35:19.141Z,5.65
2022-08-26T16:37:48.119Z,5.18
2022-08-26T16:40:17.465Z,5.07
2022-08-26T16:42:46.160Z,5.32
2022-08-26T16:45:14.635Z,5.25
2022-08-26T16:47:44.701Z,5.25
2022-08-26T16:50:13.919Z,5.97
2022-08-26T16:52:42.795Z,4.78
2022-08-26T16:55:13.403Z,5.20
2022-08-26T16:57:43.481Z,5.30
2022-08-26T17:00:15.658Z,5.18
2022-08-26T17:02:47.905Z,6.20
2022-08-26T17:05:16.520Z,5.18
2022-08-26T17:07:47.476Z,5.47
2022-08-26T17:10:15.965Z,4.65
2022-08-26T17:12:44.886Z,5.22
2022-08-26T17:15:14.169Z,4.90
2022-08-26T17:17:43.251Z,4.55
2022-08-26T17:20:15.878Z,4.93
2022-08-26T17:22:50.826Z,4.90
2022-08-26T17:25:21.374Z,4.88
2022-08-26T17:27:49.897Z,5.95
2022-08-26T17:30:21.581Z,6.05
2022-08-26T17:32:51.601Z,5.40
2022-08-26T17:35:24.953Z,5.88
2022-08-26T17:37:54.479Z,5.57
2022-08-26T17:40:24.451Z,5.45
2022-08-26T17:42:55.258Z,5.15
2022-08-26T17:45:24.104Z,5.47
2022-08-26T17:47:53.087Z,5.25
2022-08-26T17:50:23.167Z,6.00
2022-08-26T17:52:54.683Z,5.97
2022-08-26T17:55:23.480Z,6.25
2022-08-26T17:57:53.389Z,5.80
2022-08-26T18:00:23.929Z,6.40
2022-08-26T18:02:52.523Z,6.45
2022-08-26T18:05:21.381Z,5.90
2022-08-26T18:07:51.578Z,6.22
2022-08-26T18:10:21.207Z,6.25
2022-08-26T18:12:50.591Z,6.60
2022-08-26T18:15:19.440Z,6.50
2022-08-26T18:17:47.964Z,6.93
2022-08-26T18:20:18.618Z,6.10
2022-08-26T18:22:52.343Z,7.03
2022-08-26T18:25:24.982Z,6.75
2022-08-26T18:27:53.422Z,6.40
2022-08-26T18:30:22.698Z,6.68
2022-08-26T18:32:51.499Z,6.55
2022-08-26T18:35:21.502Z,6.40
2022-08-26T18:37:50.171Z,6.07
2022-08-26T18:40:19.163Z,6.45
2022-08-26T18:43:03.886Z,6.50
2022-08-26T18:45:33.048Z,5.88
2022-08-26T18:48:03.001Z,5.88
2022-08-26T18:50:33.663Z,5.07
2022-08-26T18:53:06.099Z,4.95
2022-08-26T18:55:45.591Z,4.47
2022-08-26T18:58:17.283Z,4.05
2022-08-26T19:00:53.984Z,4.75
2022-08-26T19:03:31.964Z,4.28
2022-08-26T19:06:06.049Z,4.13
2022-08-26T19:08:44.497Z,4.60
2022-08-26T19:11:13.843Z,4.50
2022-08-26T19:13:54.508Z,5.00
2022-08-26T19:16:24.347Z,4.63
2022-08-26T19:19:01.035Z,4.40
2022-08-26T19:21:33.239Z,5.15
2022-08-26T19:24:02.608Z,5.00
2022-08-26T19:26:31.350Z,5.07
2022-08-26T19:29:01.267Z,5.20
2022-08-26T19:31:30.187Z,5.05
2022-08-26T19:33:59.795Z,5.70
2022-08-26T19:36:29.367Z,5.13
2022-08-26T19:38:58.271Z,5.18
2022-08-26T19:41:36.907Z,4.95
2022-08-26T19:44:09.884Z,5.13
2022-08-26T19:46:41.719Z,4.95
2022-08-26T19:49:10.102Z,4.82
2022-08-26T19:51:38.695Z,5.13
2022-08-26T19:54:07.217Z,4.88
2022-08-26T19:56:36.636Z,5.60
2022-08-26T19:59:05.059Z,5.53
2022-08-26T20:01:35.200Z,4.80
2022-08-26T20:04:04.283Z,5.05
2022-08-26T20:06:32.999Z,4.68
2022-08-26T20:09:01.651Z,4.70
2022-08-26T20:11:30.520Z,4.65
2022-08-26T20:13:59.736Z,4.45
2022-08-26T20:16:28.481Z,4.05
2022-08-26T20:19:16.173Z,4.20
2022-08-26T20:21:45.746Z,4.20
2022-08-26T20:24:21.167Z,3.90
2022-08-26T20:26:50.360Z,4.00
2022-08-26T20:29:20.425Z,3.85
2022-08-26T20:31:49.217Z,4.18
2022-08-26T20:34:20.153Z,4.07
2022-08-26T20:36:51.489Z,3.90
2022-08-26T20:39:21.466Z,4.25
2022-08-26T20:41:52.996Z,4.00
2022-08-26T20:44:22.915Z,3.55
2022-08-26T20:46:51.979Z,4.35
2022-08-26T20:49:22.423Z,4.07
2022-08-26T20:51:52.381Z,4.97
2022-08-26T20:54:26.213Z,5.35
2022-08-26T20:56:57.054Z,5.55
2022-08-26T20:59:26.461Z,6.30
2022-08-26T21:01:55.033Z,5.35
2022-08-26T21:04:25.591Z,6.03
2022-08-26T21:06:55.094Z,5.15
2022-08-26T21:09:25.202Z,5.50
2022-08-26T21:11:54.967Z,5.57
2022-08-26T21:14:25.844Z,5.63
2022-08-26T21:16:57.345Z,5.82
2022-08-26T21:19:27.514Z,6.05
2022-08-26T21:21:56.250Z,5.90
2022-08-26T21:24:24.682Z,6.47
2022-08-26T21:26:53.510Z,5.93
2022-08-26T21:29:22.990Z,6.20
2022-08-26T21:31:51.893Z,6.10
2022-08-26T21:34:21.148Z,6.68
2022-08-26T21:36:51.856Z,6.53
2022-08-26T21:39:20.769Z,5.78
2022-08-26T21:41:49.401Z,6.10
2022-08-26T21:44:18.951Z,5.90
2022-08-26T21:46:49.186Z,6.00
2022-08-26T21:49:18.204Z,6.95
2022-08-26T21:51:48.288Z,5.88
2022-08-26T21:54:19.267Z,5.82
2022-08-26T21:56:48.451Z,5.38
2022-08-26T21:59:17.716Z,6.05
2022-08-26T22:01:46.174Z,6.38
2022-08-26T22:04:14.853Z,5.78
2022-08-26T22:06:44.543Z,6.10
2022-08-26T22:09:13.767Z,5.07
2022-08-26T22:11:44.471Z,5.60
2022-08-26T22:14:13.819Z,5.95
2022-08-26T22:16:45.720Z,6.32
2022-08-26T22:19:20.051Z,6.35
2022-08-26T22:21:50.215Z,6.07
2022-08-26T22:24:19.376Z,6.10
2022-08-26T22:26:49.542Z,5.72
2022-08-26T22:29:18.834Z,5.88
2022-08-26T22:31:48.305Z,6.53
2022-08-26T22:34:20.835Z,6.00
2022-08-26T22:36:51.120Z,5.82
2022-08-26T22:39:21.981Z,6.72
2022-08-26T22:41:52.984Z,6.30
2022-08-26T22:44:22.638Z,6.78
2022-08-26T22:46:53.627Z,6.07
2022-08-26T22:49:22.810Z,6.07
2022-08-26T22:51:52.296Z,6.75
2022-08-26T22:54:20.987Z,6.90
2022-08-26T22:56:49.845Z,6.55
2022-08-26T22:59:20.108Z,7.00
2022-08-26T23:01:48.857Z,7.57
2022-08-26T23:04:17.730Z,7.53
2022-08-26T23:06:47.585Z,7.22
2022-08-26T23:09:18.309Z,6.93
2022-08-26T23:11:47.622Z,7.32
2022-08-26T23:14:16.503Z,7.60
2022-08-26T23:16:47.901Z,7.65
2022-08-26T23:19:16.894Z,8.05
2022-08-26T23:21:45.877Z,7.70
2022-08-26T23:24:14.927Z,7.78
2022-08-26T23:26:43.974Z,7.57
2022-08-26T23:29:14.903Z,7.70
2022-08-26T23:31:44.135Z,7.78
2022-08-26T23:34:31.947Z,8.10
2022-08-26T23:37:01.009Z,7.45
2022-08-26T23:39:30.152Z,8.07
2022-08-26T23:42:01.860Z,7.72
2022-08-26T23:44:30.862Z,7.57
2022-08-26T23:46:59.532Z,8.07
2022-08-26T23:49:29.914Z,7.05
2022-08-26T23:52:16.463Z,7.78
2022-08-26T23:54:45.467Z,7.65
2022-08-26T23:57:14.406Z,8.15
2022-08-26T23:59:44.585Z,7.53
